createdAt,value
2023-01-29T00:01:47.759Z,17.67
2023-01-29T00:04:14.509Z,18.77
2023-01-29T00:06:40.944Z,16.33
2023-01-29T00:09:07.397Z,17.77
2023-01-29T00:11:33.794Z,17.27
2023-01-29T00:14:00.187Z,18.08
2023-01-29T00:16:26.628Z,16.63
2023-01-29T00:18:53.130Z,17.57
2023-01-29T00:21:24.640Z,16.63
2023-01-29T00:23:51.300Z,19.35
2023-01-29T00:26:17.817Z,19.67
2023-01-29T00:28:44.530Z,19.40
2023-01-29T00:31:13.180Z,19.27
2023-01-29T00:33:40.295Z,19.75
2023-01-29T00:36:09.399Z,21.60
2023-01-29T00:38:37.237Z,18.02
2023-01-29T00:41:26.799Z,19.90
2023-01-29T00:44:11.643Z,18.47
2023-01-29T00:46:38.213Z,19.88
2023-01-29T00:49:06.722Z,21.27
2023-01-29T00:51:33.085Z,17.90
2023-01-29T00:53:59.845Z,18.85
2023-01-29T00:56:30.231Z,19.47
2023-01-29T00:58:57.102Z,23.00
2023-01-29T01:01:42.748Z,19.13
2023-01-29T01:04:10.997Z,15.90
2023-01-29T01:06:38.525Z,15.48
2023-01-29T01:09:24.440Z,17.53
2023-01-29T01:11:51.768Z,20.63
2023-01-29T01:14:20.117Z,17.15
2023-01-29T01:16:47.889Z,19.35
2023-01-29T01:19:15.358Z,16.25
2023-01-29T01:21:45.353Z,17.33
2023-01-29T01:24:13.157Z,16.98
2023-01-29T01:26:39.816Z,18.50
2023-01-29T01:29:06.850Z,15.73
2023-01-29T01:31:33.459Z,16.77
2023-01-29T01:33:59.945Z,17.40
2023-01-29T01:36:26.352Z,17.27
2023-01-29T01:38:52.828Z,17.27
2023-01-29T01:41:21.808Z,17.52
2023-01-29T01:43:58.498Z,17.00
2023-01-29T01:46:28.540Z,17.97
2023-01-29T01:49:00.487Z,17.65
2023-01-29T01:51:28.936Z,18.33
2023-01-29T01:54:01.969Z,18.42
2023-01-29T01:56:38.359Z,15.50
2023-01-29T01:59:09.645Z,17.10
2023-01-29T02:01:38.241Z,17.00
2023-01-29T02:04:26.499Z,18.77
2023-01-29T02:07:12.926Z,16.00
2023-01-29T02:09:46.242Z,19.00
2023-01-29T02:12:15.929Z,15.10
2023-01-29T02:14:43.524Z,17.70
2023-01-29T02:17:14.210Z,18.38
2023-01-29T02:20:02.332Z,18.15
2023-01-29T02:22:55.066Z,20.38
2023-01-29T02:25:40.539Z,14.97
2023-01-29T02:28:14.098Z,16.20
2023-01-29T02:30:47.522Z,19.33
2023-01-29T02:33:26.289Z,17.48
2023-01-29T02:36:04.602Z,16.17
2023-01-29T02:38:46.655Z,17.00
2023-01-29T02:41:26.521Z,18.42
2023-01-29T02:43:57.388Z,19.15
2023-01-29T02:46:37.255Z,16.02
2023-01-29T02:49:06.643Z,13.75
2023-01-29T02:52:12.172Z,19.57
2023-01-29T02:54:47.395Z,18.83
2023-01-29T02:57:21.796Z,17.60
2023-01-29T02:59:58.542Z,19.42
2023-01-29T03:02:33.380Z,15.93
2023-01-29T03:05:05.990Z,17.47
2023-01-29T03:07:42.301Z,20.35
2023-01-29T03:10:18.131Z,20.75
2023-01-29T03:12:49.854Z,20.08
2023-01-29T03:15:25.007Z,20.33
2023-01-29T03:17:57.343Z,17.43
2023-01-29T03:20:32.000Z,17.50
2023-01-29T03:23:06.357Z,21.30
2023-01-29T03:25:54.631Z,21.00
2023-01-29T03:28:40.636Z,19.80
2023-01-29T03:31:30.557Z,20.20
2023-01-29T03:34:05.274Z,21.65
2023-01-29T03:36:45.543Z,21.70
2023-01-29T03:39:13.743Z,20.63
2023-01-29T03:41:53.576Z,21.05
2023-01-29T03:44:33.585Z,19.83
2023-01-29T03:47:17.132Z,19.75
2023-01-29T03:49:55.429Z,22.30
2023-01-29T03:52:28.925Z,19.70
2023-01-29T03:55:42.979Z,22.45
2023-01-29T03:58:23.664Z,21.03
2023-01-29T04:00:56.896Z,21.35
2023-01-29T04:03:32.946Z,20.83
2023-01-29T04:06:05.451Z,24.15
2023-01-29T04:08:35.785Z,23.20
2023-01-29T04:11:10.294Z,22.80
2023-01-29T04:13:38.031Z,21.15
2023-01-29T04:16:08.265Z,18.60
2023-01-29T04:18:34.767Z,21.25
2023-01-29T04:21:01.347Z,22.45
2023-01-29T04:23:27.984Z,21.63
2023-01-29T04:26:07.177Z,22.50
2023-01-29T04:29:10.818Z,23.70
2023-01-29T04:31:51.598Z,22.58
2023-01-29T04:34:43.949Z,22.13
2023-01-29T04:37:22.965Z,19.13
2023-01-29T04:39:59.818Z,23.15
2023-01-29T04:42:57.983Z,23.75
2023-01-29T04:45:43.545Z,23.00
2023-01-29T04:48:23.201Z,21.98
2023-01-29T04:50:59.510Z,18.43
2023-01-29T04:53:52.553Z,20.63
2023-01-29T04:56:46.813Z,21.52
2023-01-29T04:59:19.243Z,21.48
2023-01-29T05:01:47.176Z,24.08
2023-01-29T05:04:16.465Z,21.00
2023-01-29T05:06:46.513Z,22.88
2023-01-29T05:09:15.703Z,22.83
2023-01-29T05:11:44.245Z,25.52
2023-01-29T05:14:14.677Z,24.80
2023-01-29T05:16:49.467Z,24.17
2023-01-29T05:19:17.147Z,22.35
2023-01-29T05:21:47.429Z,19.52
2023-01-29T05:24:19.516Z,22.17
2023-01-29T05:27:07.704Z,22.80
2023-01-29T05:29:34.248Z,23.13
2023-01-29T05:32:01.198Z,24.60
2023-01-29T05:34:27.805Z,21.65
2023-01-29T05:36:54.196Z,26.08
2023-01-29T05:39:21.114Z,21.65
2023-01-29T05:41:47.623Z,24.00
2023-01-29T05:44:13.978Z,22.48
2023-01-29T05:46:40.424Z,23.08
2023-01-29T05:49:06.791Z,21.25
2023-01-29T05:51:33.139Z,23.45
2023-01-29T05:53:59.531Z,23.50
2023-01-29T05:56:25.994Z,25.65
2023-01-29T05:58:52.749Z,23.45
2023-01-29T06:01:22.508Z,23.20
2023-01-29T06:03:49.071Z,24.00
2023-01-29T06:06:16.129Z,22.07
2023-01-29T06:08:43.134Z,21.90
2023-01-29T06:11:11.965Z,22.50
2023-01-29T06:13:38.686Z,22.45
2023-01-29T06:16:06.834Z,22.55
2023-01-29T06:18:33.711Z,22.53
2023-01-29T06:21:02.571Z,22.55
2023-01-29T06:23:29.811Z,23.40
2023-01-29T06:26:04.714Z,23.05
2023-01-29T06:28:31.175Z,19.52
2023-01-29T06:31:21.054Z,19.90
2023-01-29T06:33:48.983Z,21.33
2023-01-29T06:36:15.321Z,21.17
2023-01-29T06:38:41.664Z,21.83
2023-01-29T06:41:12.663Z,19.85
2023-01-29T06:43:39.699Z,20.50
2023-01-29T06:46:08.360Z,22.38
2023-01-29T06:48:35.206Z,20.30
2023-01-29T06:51:06.308Z,16.45
2023-01-29T06:53:33.656Z,18.85
2023-01-29T06:56:00.075Z,22.37
2023-01-29T06:58:26.642Z,19.80
2023-01-29T07:00:53.100Z,18.38
2023-01-29T07:03:19.672Z,18.95
2023-01-29T07:05:52.957Z,23.85
2023-01-29T07:08:22.536Z,20.90
2023-01-29T07:10:49.864Z,18.15
2023-01-29T07:13:16.583Z,19.20
2023-01-29T07:15:44.401Z,18.75
2023-01-29T07:18:14.201Z,18.77
2023-01-29T07:20:41.679Z,22.27
2023-01-29T07:23:12.869Z,21.02
2023-01-29T07:25:40.135Z,18.70
2023-01-29T07:28:07.056Z,19.70
2023-01-29T07:30:33.975Z,18.90
2023-01-29T07:33:08.756Z,18.10
2023-01-29T07:35:40.052Z,17.00
2023-01-29T07:38:07.605Z,18.38
2023-01-29T07:40:34.285Z,21.38
2023-01-29T07:43:02.267Z,17.95
2023-01-29T07:45:29.986Z,19.50
2023-01-29T07:47:57.261Z,16.55
2023-01-29T07:50:25.408Z,17.88
2023-01-29T07:52:52.172Z,23.58
2023-01-29T07:55:18.581Z,20.90
2023-01-29T07:57:44.969Z,18.73
2023-01-29T08:00:12.725Z,18.75
2023-01-29T08:02:39.907Z,18.55
2023-01-29T08:05:06.636Z,20.65
2023-01-29T08:07:33.047Z,17.23
2023-01-29T08:09:59.428Z,17.77
2023-01-29T08:12:25.884Z,19.75
2023-01-29T08:14:52.256Z,19.95
2023-01-29T08:17:18.649Z,17.58
2023-01-29T08:19:45.033Z,16.55
2023-01-29T08:22:11.394Z,17.70
2023-01-29T08:24:53.253Z,16.92
2023-01-29T08:27:24.206Z,16.50
2023-01-29T08:29:50.592Z,16.88
2023-01-29T08:32:17.026Z,16.30
2023-01-29T08:34:43.389Z,19.40
2023-01-29T08:37:09.767Z,19.98
2023-01-29T08:39:36.160Z,20.80
2023-01-29T08:42:02.497Z,21.17
2023-01-29T08:44:29.376Z,20.65
2023-01-29T08:46:55.790Z,17.97
2023-01-29T08:49:22.197Z,21.05
2023-01-29T08:51:48.636Z,18.42
2023-01-29T08:54:15.070Z,16.73
2023-01-29T08:56:41.435Z,18.38
2023-01-29T08:59:07.840Z,19.40
2023-01-29T09:01:34.284Z,17.85
2023-01-29T09:04:00.654Z,17.55
2023-01-29T09:06:27.069Z,17.05
2023-01-29T09:08:53.479Z,19.65
2023-01-29T09:11:19.856Z,17.23
2023-01-29T09:13:46.202Z,19.42
2023-01-29T09:16:12.707Z,18.17
2023-01-29T09:18:39.050Z,18.10
2023-01-29T09:21:05.767Z,19.98
2023-01-29T09:23:32.795Z,18.03
2023-01-29T09:25:59.300Z,16.67
2023-01-29T09:28:26.019Z,20.85
2023-01-29T09:30:52.593Z,18.45
2023-01-29T09:33:19.184Z,20.20
2023-01-29T09:35:47.023Z,19.47
2023-01-29T09:38:14.181Z,16.38
2023-01-29T09:41:06.894Z,17.73
2023-01-29T09:43:45.882Z,18.17
2023-01-29T09:46:43.292Z,16.15
2023-01-29T09:49:41.665Z,20.00
2023-01-29T09:52:20.403Z,17.98
2023-01-29T09:55:01.932Z,15.95
2023-01-29T09:57:38.836Z,20.98
2023-01-29T10:00:05.957Z,16.90
2023-01-29T10:03:02.031Z,17.07
2023-01-29T10:05:40.806Z,21.52
2023-01-29T10:08:29.577Z,16.65
2023-01-29T10:11:23.939Z,16.77
2023-01-29T10:14:14.771Z,20.23
2023-01-29T10:17:12.246Z,17.83
2023-01-29T10:19:48.961Z,18.27
2023-01-29T10:22:41.961Z,17.92
2023-01-29T10:25:21.351Z,20.63
2023-01-29T10:27:51.829Z,19.33
2023-01-29T10:30:21.837Z,20.83
2023-01-29T10:32:50.038Z,18.70
2023-01-29T10:35:28.421Z,19.85
2023-01-29T10:37:58.945Z,19.08
2023-01-29T10:40:43.842Z,20.85
2023-01-29T10:43:19.586Z,17.43
2023-01-29T10:45:57.240Z,19.83
2023-01-29T10:48:36.912Z,18.00
2023-01-29T10:52:00.588Z,19.45
2023-01-29T10:55:03.093Z,20.42
2023-01-29T10:57:59.221Z,19.03
2023-01-29T11:00:30.449Z,20.52
2023-01-29T11:02:57.044Z,19.80
2023-01-29T11:05:34.312Z,21.88
2023-01-29T11:08:07.184Z,20.70
2023-01-29T11:10:41.664Z,23.93
2023-01-29T11:13:14.041Z,19.88
2023-01-29T11:15:40.514Z,22.17
2023-01-29T11:18:15.657Z,22.05
2023-01-29T11:20:44.477Z,19.65
2023-01-29T11:23:26.941Z,22.47
2023-01-29T11:25:55.534Z,23.23
2023-01-29T11:28:42.171Z,20.15
2023-01-29T11:31:35.128Z,20.10
2023-01-29T11:34:16.576Z,23.08
2023-01-29T11:36:44.867Z,22.83
2023-01-29T11:39:20.043Z,24.00
2023-01-29T11:41:49.364Z,22.70
2023-01-29T11:44:39.732Z,24.08
2023-01-29T11:47:27.470Z,23.23
2023-01-29T11:50:00.600Z,23.13
2023-01-29T11:52:36.314Z,23.85
2023-01-29T11:55:15.888Z,20.88
2023-01-29T11:57:46.480Z,24.83
2023-01-29T12:00:25.359Z,24.13
2023-01-29T12:03:01.387Z,25.13
2023-01-29T12:05:27.951Z,24.35
2023-01-29T12:08:00.379Z,23.33
2023-01-29T12:10:37.141Z,25.45
2023-01-29T12:13:19.778Z,23.50
2023-01-29T12:15:47.972Z,24.27
2023-01-29T12:18:30.406Z,25.30
2023-01-29T12:21:03.065Z,22.77
2023-01-29T12:23:56.121Z,26.50
2023-01-29T12:26:33.759Z,23.17
2023-01-29T12:29:35.637Z,25.20
2023-01-29T12:32:23.825Z,22.75
2023-01-29T12:35:12.637Z,25.63
2023-01-29T12:38:03.096Z,28.70
2023-01-29T12:40:34.139Z,26.75
2023-01-29T12:43:07.058Z,24.33
2023-01-29T12:45:36.541Z,25.73
2023-01-29T12:48:08.637Z,23.70
2023-01-29T12:50:37.555Z,25.05
2023-01-29T12:53:25.675Z,28.23
2023-01-29T12:56:02.892Z,25.07
2023-01-29T12:58:35.148Z,24.50
2023-01-29T13:01:10.921Z,27.30
2023-01-29T13:04:01.490Z,27.15
2023-01-29T13:06:33.508Z,25.58
2023-01-29T13:09:11.980Z,25.27
2023-01-29T13:12:00.489Z,24.17
2023-01-29T13:14:42.282Z,26.33
2023-01-29T13:17:18.387Z,27.35
2023-01-29T13:19:49.513Z,32.75
2023-01-29T13:22:23.129Z,25.20
2023-01-29T13:25:03.613Z,24.65
2023-01-29T13:27:33.815Z,24.88
2023-01-29T13:30:00.956Z,22.95
2023-01-29T13:32:30.065Z,28.00
2023-01-29T13:35:13.443Z,25.87
2023-01-29T13:37:50.013Z,27.33
2023-01-29T13:40:24.325Z,27.73
2023-01-29T13:42:54.054Z,25.30
2023-01-29T13:45:22.040Z,22.98
2023-01-29T13:47:49.952Z,23.33
2023-01-29T13:50:42.401Z,23.48
2023-01-29T13:53:21.725Z,24.85
2023-01-29T13:55:48.116Z,25.00
2023-01-29T13:58:43.320Z,25.25
2023-01-29T14:01:09.767Z,20.90
2023-01-29T14:04:06.142Z,24.58
2023-01-29T14:06:40.383Z,22.52
2023-01-29T14:09:31.033Z,20.80
2023-01-29T14:11:57.546Z,26.98
2023-01-29T14:14:49.084Z,20.30
2023-01-29T14:17:17.320Z,22.33
2023-01-29T14:19:59.183Z,26.70
2023-01-29T14:22:32.085Z,25.15
2023-01-29T14:25:03.377Z,22.15
2023-01-29T14:27:30.903Z,24.67
2023-01-29T14:30:18.827Z,21.50
2023-01-29T14:32:51.425Z,22.75
2023-01-29T14:35:22.840Z,21.90
2023-01-29T14:37:57.505Z,23.40
2023-01-29T14:40:26.022Z,23.27
2023-01-29T14:42:55.147Z,20.88
2023-01-29T14:45:32.432Z,23.02
2023-01-29T14:48:11.035Z,27.13
2023-01-29T14:50:37.778Z,22.33
2023-01-29T14:53:19.550Z,21.70
2023-01-29T14:56:10.423Z,20.38
2023-01-29T14:58:56.254Z,23.52
2023-01-29T15:01:39.517Z,20.80
2023-01-29T15:04:15.975Z,22.38
2023-01-29T15:06:52.965Z,23.37
2023-01-29T15:09:42.678Z,28.02
2023-01-29T15:12:26.452Z,23.85
2023-01-29T15:15:05.840Z,20.55
2023-01-29T15:18:16.116Z,22.85
2023-01-29T15:20:43.441Z,20.30
2023-01-29T15:23:31.746Z,21.33
2023-01-29T15:26:01.940Z,22.33
2023-01-29T15:28:33.387Z,21.58
2023-01-29T15:31:02.338Z,22.73
2023-01-29T15:33:28.992Z,22.60
2023-01-29T15:36:06.929Z,21.83
2023-01-29T15:38:34.310Z,20.02
2023-01-29T15:41:03.615Z,21.25
2023-01-29T15:43:37.100Z,23.70
2023-01-29T15:46:14.394Z,21.47
2023-01-29T15:48:43.460Z,23.02
2023-01-29T15:51:15.969Z,20.00
2023-01-29T15:54:15.773Z,21.50
2023-01-29T15:56:51.688Z,22.23
2023-01-29T15:59:22.326Z,22.10
2023-01-29T16:01:48.807Z,19.35
2023-01-29T16:04:20.898Z,22.83
2023-01-29T16:06:47.995Z,22.55
2023-01-29T16:09:26.199Z,24.65
2023-01-29T16:11:57.399Z,20.57
2023-01-29T16:14:25.676Z,24.92
2023-01-29T16:16:52.921Z,24.25
2023-01-29T16:19:27.890Z,23.83
2023-01-29T16:22:03.543Z,19.95
2023-01-29T16:24:32.281Z,21.27
2023-01-29T16:27:10.963Z,22.85
2023-01-29T16:29:38.910Z,23.70
2023-01-29T16:32:06.172Z,23.17
2023-01-29T16:34:37.649Z,23.73
2023-01-29T16:37:07.315Z,21.77
2023-01-29T16:39:38.253Z,20.08
2023-01-29T16:42:12.193Z,21.63
2023-01-29T16:44:40.243Z,22.08
2023-01-29T16:47:15.343Z,19.42
2023-01-29T16:49:49.735Z,24.10
2023-01-29T16:52:31.283Z,21.05
2023-01-29T16:55:15.281Z,21.23
2023-01-29T16:57:44.109Z,20.65
2023-01-29T17:00:20.821Z,24.65
2023-01-29T17:02:50.564Z,23.00
2023-01-29T17:05:26.164Z,24.92
2023-01-29T17:07:55.459Z,23.52
2023-01-29T17:10:22.039Z,26.83
2023-01-29T17:12:55.640Z,21.92
2023-01-29T17:15:42.962Z,25.43
2023-01-29T17:18:20.095Z,26.67
2023-01-29T17:20:47.348Z,26.45
2023-01-29T17:23:13.870Z,23.38
2023-01-29T17:25:40.948Z,27.33
2023-01-29T17:28:07.643Z,25.57
2023-01-29T17:30:37.132Z,24.52
2023-01-29T17:33:17.875Z,25.77
2023-01-29T17:35:45.417Z,28.52
2023-01-29T17:38:24.965Z,28.02
2023-01-29T17:41:11.752Z,27.23
2023-01-29T17:43:38.276Z,24.70
2023-01-29T17:46:04.711Z,25.48
2023-01-29T17:48:31.825Z,31.10
2023-01-29T17:51:04.436Z,28.13
2023-01-29T17:53:45.358Z,25.83
2023-01-29T17:56:17.741Z,23.38
2023-01-29T17:58:44.560Z,28.63
2023-01-29T18:01:10.966Z,25.70
2023-01-29T18:03:37.386Z,28.75
2023-01-29T18:06:07.683Z,22.57
2023-01-29T18:08:36.797Z,26.30
2023-01-29T18:11:03.342Z,27.60
2023-01-29T18:13:29.744Z,27.98
2023-01-29T18:15:56.110Z,28.13
2023-01-29T18:18:24.049Z,22.83
2023-01-29T18:20:50.976Z,32.60
2023-01-29T18:23:17.546Z,25.77
2023-01-29T18:25:44.798Z,29.02
2023-01-29T18:28:19.202Z,28.48
2023-01-29T18:30:47.236Z,24.67
2023-01-29T18:33:14.290Z,24.05
2023-01-29T18:35:40.761Z,29.77
2023-01-29T18:38:07.112Z,26.50
2023-01-29T18:40:33.514Z,35.63
2023-01-29T18:43:00.873Z,28.93
2023-01-29T18:45:28.601Z,30.00
2023-01-29T18:47:55.605Z,25.58
2023-01-29T18:50:26.207Z,26.38
2023-01-29T18:52:53.619Z,26.95
2023-01-29T18:55:20.847Z,28.53
2023-01-29T18:58:24.929Z,28.30
2023-01-29T19:00:33.879Z,30.65
2023-01-29T19:03:00.741Z,26.48
2023-01-29T19:05:27.214Z,27.17
2023-01-29T19:07:53.751Z,30.90
2023-01-29T19:10:20.179Z,30.98
2023-01-29T19:12:46.665Z,26.08
2023-01-29T19:15:13.064Z,28.70
2023-01-29T19:17:39.487Z,23.65
2023-01-29T19:20:06.394Z,26.93
2023-01-29T19:22:32.781Z,27.33
2023-01-29T19:24:59.260Z,28.92
2023-01-29T19:27:30.157Z,25.15
2023-01-29T19:29:57.972Z,26.65
2023-01-29T19:32:24.343Z,26.80
2023-01-29T19:34:51.049Z,25.42
2023-01-29T19:37:17.474Z,28.10
2023-01-29T19:39:43.861Z,27.20
2023-01-29T19:42:10.279Z,23.52
2023-01-29T19:44:38.865Z,27.30
2023-01-29T19:47:05.501Z,26.50
2023-01-29T19:49:33.927Z,28.00
2023-01-29T19:52:01.121Z,23.83
2023-01-29T19:54:28.124Z,32.70
2023-01-29T19:56:54.721Z,24.63
2023-01-29T19:59:21.409Z,28.17
2023-01-29T20:01:47.950Z,30.33
2023-01-29T20:04:14.399Z,26.80
2023-01-29T20:06:40.957Z,27.17
2023-01-29T20:09:07.326Z,27.83
2023-01-29T20:11:33.836Z,25.15
2023-01-29T20:14:00.191Z,28.25
2023-01-29T20:16:26.816Z,28.92
2023-01-29T20:18:53.225Z,31.30
2023-01-29T20:21:21.903Z,25.60
2023-01-29T20:23:50.171Z,29.45
2023-01-29T20:26:17.836Z,26.77
2023-01-29T20:28:48.048Z,28.58
2023-01-29T20:31:15.461Z,28.15
2023-01-29T20:33:42.083Z,24.53
2023-01-29T20:36:10.378Z,30.85
2023-01-29T20:38:37.064Z,29.17
2023-01-29T20:41:06.569Z,29.88
2023-01-29T20:43:33.688Z,32.20
2023-01-29T20:46:00.919Z,26.03
2023-01-29T20:48:27.483Z,28.02
2023-01-29T20:50:54.224Z,27.48
2023-01-29T20:53:20.739Z,35.42
2023-01-29T20:55:47.228Z,27.13
2023-01-29T20:58:13.860Z,28.70
2023-01-29T21:00:40.233Z,30.33
2023-01-29T21:03:06.609Z,29.35
2023-01-29T21:05:32.968Z,32.13
2023-01-29T21:07:59.313Z,30.60
2023-01-29T21:10:25.666Z,30.47
2023-01-29T21:12:52.124Z,34.47
2023-01-29T21:15:18.552Z,26.13
2023-01-29T21:17:47.983Z,32.70
2023-01-29T21:20:14.925Z,28.35
2023-01-29T21:22:43.801Z,30.37
2023-01-29T21:25:11.281Z,27.13
2023-01-29T21:27:37.837Z,25.92
2023-01-29T21:30:04.827Z,28.27
2023-01-29T21:32:36.206Z,31.10
2023-01-29T21:35:02.725Z,25.33
2023-01-29T21:37:29.301Z,27.40
2023-01-29T21:39:55.681Z,31.52
2023-01-29T21:42:40.675Z,30.10
2023-01-29T21:45:07.779Z,30.63
2023-01-29T21:47:34.174Z,25.13
2023-01-29T21:50:00.564Z,31.30
2023-01-29T21:52:27.031Z,26.33
2023-01-29T21:54:53.426Z,28.15
2023-01-29T21:57:19.908Z,30.60
2023-01-29T21:59:52.478Z,29.10
2023-01-29T22:02:21.092Z,29.98
2023-01-29T22:04:47.516Z,27.40
2023-01-29T22:07:14.397Z,28.70
2023-01-29T22:09:40.992Z,28.90
2023-01-29T22:12:08.508Z,31.73
2023-01-29T22:14:34.944Z,31.85
2023-01-29T22:17:01.396Z,34.28
2023-01-29T22:19:29.340Z,29.27
2023-01-29T22:21:56.171Z,34.95
2023-01-29T22:24:23.463Z,32.53
2023-01-29T22:26:50.016Z,33.10
2023-01-29T22:29:19.594Z,27.42
2023-01-29T22:31:46.421Z,26.67
2023-01-29T22:34:14.266Z,30.33
2023-01-29T22:36:40.699Z,27.50
2023-01-29T22:39:10.382Z,27.15
2023-01-29T22:41:36.841Z,29.33
2023-01-29T22:44:03.757Z,30.65
2023-01-29T22:46:30.505Z,30.98
2023-01-29T22:48:57.170Z,24.37
2023-01-29T22:51:23.559Z,31.23
2023-01-29T22:53:51.017Z,25.35
2023-01-29T22:56:18.249Z,26.25
2023-01-29T22:58:45.092Z,27.08
2023-01-29T23:01:11.606Z,30.40
2023-01-29T23:03:38.146Z,28.73
2023-01-29T23:06:04.607Z,30.42
2023-01-29T23:08:33.230Z,28.45
2023-01-29T23:11:13.697Z,28.38
2023-01-29T23:13:45.642Z,31.10
2023-01-29T23:16:13.614Z,33.67
2023-01-29T23:18:40.783Z,29.98
2023-01-29T23:21:07.827Z,29.15
2023-01-29T23:23:36.424Z,26.35
2023-01-29T23:26:23.447Z,27.53
2023-01-29T23:28:50.148Z,24.23
2023-01-29T23:31:16.704Z,25.98
2023-01-29T23:33:43.281Z,26.10
2023-01-29T23:36:09.912Z,25.48
2023-01-29T23:38:36.409Z,28.03
2023-01-29T23:41:02.797Z,22.40
2023-01-29T23:43:30.230Z,27.10
2023-01-29T23:45:57.062Z,29.50
2023-01-29T23:48:24.222Z,26.30
2023-01-29T23:50:51.211Z,28.73
2023-01-29T23:53:18.052Z,22.35
2023-01-29T23:55:54.885Z,24.00
2023-01-29T23:58:21.248Z,24.63
